Time;durP1;ratioP1;P1;durP2;ratioP2;P2;SDS_P1;SDS_P2;PMS_P1;PMS_P2;Temp;Humidity;BMP_temperature;BMP_pressure;BME280_temperature;BME280_humidity;BME280_pressure;Samples;Min_cycle;Max_cycle;Signal;HPM_P1;HPM_P2
2021/11/26 00:02:27;;;;;;;39.30;12.70;;;1.20;99.90;;;;;;4975771;28;20065;-84
2021/11/26 00:04:53;;;;;;;31.57;12.40;;;1.20;99.90;;;;;;4957792;28;20026;-83
2021/11/26 00:07:20;;;;;;;43.47;13.57;;;1.10;99.90;;;;;;4955930;28;20439;-86
2021/11/26 00:09:47;;;;;;;34.10;13.03;;;1.20;99.90;;;;;;4972120;28;20093;-84
2021/11/26 00:12:13;;;;;;;34.80;13.07;;;1.10;99.90;;;;;;4955078;28;20033;-84
2021/11/26 00:17:23;;;;;;;39.53;13.07;;;1.10;99.90;;;;;;4972723;28;20034;-84
2021/11/26 00:19:49;;;;;;;36.50;12.43;;;1.10;99.90;;;;;;4958547;28;20026;-83
2021/11/26 00:22:16;;;;;;;34.47;12.60;;;1.10;99.90;;;;;;4956250;28;20404;-84
2021/11/26 00:24:42;;;;;;;34.40;13.13;;;1.10;99.90;;;;;;4958034;28;20072;-84
2021/11/26 00:27:08;;;;;;;41.47;14.67;;;1.00;99.90;;;;;;4958062;28;20030;-84
2021/11/26 00:29:34;;;;;;;37.60;13.67;;;1.10;99.90;;;;;;4958001;28;20034;-84
2021/11/26 00:31:59;;;;;;;35.83;12.60;;;1.00;99.90;;;;;;4952295;28;20035;-84
2021/11/26 00:34:25;;;;;;;31.33;12.10;;;1.00;99.90;;;;;;4957646;28;20476;-84
2021/11/26 00:36:51;;;;;;;42.87;12.83;;;1.00;99.90;;;;;;4975079;28;20050;-83
2021/11/26 00:39:17;;;;;;;37.50;13.33;;;1.00;99.90;;;;;;4954860;28;20023;-83
2021/11/26 00:41:42;;;;;;;36.33;12.90;;;1.00;99.90;;;;;;4954425;29;20038;-84
2021/11/26 00:44:08;;;;;;;42.00;14.40;;;1.10;99.90;;;;;;4970824;28;20046;-83
2021/11/26 00:46:34;;;;;;;35.27;12.73;;;1.10;99.90;;;;;;4958259;28;20173;-84
2021/11/26 00:49:00;;;;;;;36.07;12.20;;;1.10;99.90;;;;;;4958143;28;20058;-84
2021/11/26 00:51:26;;;;;;;37.57;13.40;;;1.10;99.90;;;;;;4954341;28;20027;-83
2021/11/26 00:53:52;;;;;;;33.90;13.20;;;1.10;99.90;;;;;;4967383;28;20046;-84
2021/11/26 00:56:18;;;;;;;37.13;12.53;;;1.10;99.90;;;;;;4975048;28;20062;-84
2021/11/26 00:58:44;;;;;;;34.33;13.27;;;1.00;99.90;;;;;;4957751;28;20383;-84
2021/11/26 01:01:09;;;;;;;31.40;12.27;;;1.00;99.90;;;;;;4974560;28;20027;-84
2021/11/26 01:03:35;;;;;;;38.70;12.50;;;1.00;99.90;;;;;;4956612;28;20141;-84
2021/11/26 01:06:01;;;;;;;33.90;13.40;;;1.00;99.90;;;;;;4957551;28;20097;-84
2021/11/26 01:08:27;;;;;;;38.27;12.67;;;1.00;99.90;;;;;;4957775;28;20046;-84
2021/11/26 01:10:53;;;;;;;32.63;12.17;;;1.00;99.90;;;;;;4957676;28;20054;-84
2021/11/26 01:13:19;;;;;;;38.70;12.90;;;1.00;99.90;;;;;;4974202;28;20039;-84
2021/11/26 01:15:45;;;;;;;39.80;12.60;;;1.00;99.90;;;;;;4974158;28;20057;-84
2021/11/26 01:18:12;;;;;;;37.77;13.37;;;1.00;99.90;;;;;;4969283;28;20051;-84
2021/11/26 01:20:39;;;;;;;39.07;12.97;;;1.00;99.90;;;;;;4953367;28;20042;-84
2021/11/26 01:23:05;;;;;;;32.67;13.53;;;1.00;99.90;;;;;;4977791;28;20411;-84
2021/11/26 01:25:31;;;;;;;31.80;11.87;;;1.00;99.90;;;;;;4956606;28;20182;-84
2021/11/26 01:27:58;;;;;;;39.47;11.63;;;1.00;99.90;;;;;;4954678;28;20714;-83
2021/11/26 01:30:31;;;;;;;38.47;13.53;;;1.10;99.90;;;;;;4978253;28;20034;-84
2021/11/26 01:33:05;;;;;;;31.00;12.53;;;1.00;99.90;;;;;;4942423;28;20035;-84
2021/11/26 01:35:31;;;;;;;34.87;11.20;;;1.00;99.90;;;;;;4969326;28;20035;-84
2021/11/26 01:37:57;;;;;;;39.57;13.43;;;1.00;99.90;;;;;;4958136;28;20033;-84
2021/11/26 01:40:23;;;;;;;31.77;11.33;;;1.00;99.90;;;;;;4941171;29;20402;-84
2021/11/26 01:42:52;;;;;;;37.90;12.80;;;1.10;99.90;;;;;;4957853;29;20042;-84
2021/11/26 01:45:18;;;;;;;33.73;11.93;;;1.10;99.90;;;;;;4958326;29;20028;-84
2021/11/26 01:47:44;;;;;;;38.30;12.30;;;1.10;99.90;;;;;;4965566;28;20554;-84
2021/11/26 01:50:11;;;;;;;31.80;11.63;;;1.00;99.90;;;;;;4960605;28;20400;-84
2021/11/26 01:52:37;;;;;;;31.43;11.30;;;1.00;99.90;;;;;;4959650;28;20081;-84
2021/11/26 01:55:05;;;;;;;35.00;12.60;;;1.00;99.90;;;;;;4959939;28;20026;-84
2021/11/26 01:57:30;;;;;;;39.40;13.53;;;1.00;99.90;;;;;;4977356;28;20105;-84
2021/11/26 01:59:57;;;;;;;38.70;13.43;;;1.00;99.90;;;;;;4960372;28;20062;-84
2021/11/26 02:02:23;;;;;;;36.97;12.77;;;0.90;99.90;;;;;;4977646;28;20527;-84
2021/11/26 02:04:48;;;;;;;33.87;13.83;;;1.00;99.90;;;;;;4960855;28;20023;-84
2021/11/26 02:07:14;;;;;;;33.00;11.47;;;0.90;99.90;;;;;;4980110;28;20035;-84
2021/11/26 02:09:40;;;;;;;35.77;13.63;;;0.90;99.90;;;;;;4969000;28;20034;-84
2021/11/26 02:12:07;;;;;;;36.23;12.77;;;1.00;99.90;;;;;;4986030;28;20125;-84
2021/11/26 02:14:32;;;;;;;37.73;13.07;;;0.90;99.90;;;;;;4968751;28;20062;-84
2021/11/26 02:16:58;;;;;;;42.13;13.60;;;1.00;99.90;;;;;;4967223;28;20031;-84
2021/11/26 02:19:26;;;;;;;40.27;13.90;;;1.00;99.90;;;;;;4967306;28;20085;-83
2021/11/26 02:21:54;;;;;;;36.17;12.47;;;1.00;99.90;;;;;;4979407;28;20475;-84
2021/11/26 02:24:20;;;;;;;31.50;11.63;;;0.90;99.90;;;;;;4967792;28;20105;-84
2021/11/26 02:26:48;;;;;;;35.67;13.80;;;0.90;99.90;;;;;;4951206;28;20031;-84
2021/11/26 02:29:16;;;;;;;40.57;13.00;;;0.90;99.90;;;;;;4973012;28;20507;-84
2021/11/26 02:31:42;;;;;;;31.90;11.70;;;0.90;99.90;;;;;;4959203;28;20054;-84
2021/11/26 02:34:09;;;;;;;37.93;12.57;;;0.90;99.90;;;;;;4977047;28;20038;-84
2021/11/26 02:36:35;;;;;;;37.50;12.77;;;1.00;99.90;;;;;;4958671;28;20027;-83
2021/11/26 02:39:07;;;;;;;42.90;13.70;;;0.90;99.90;;;;;;4956465;29;20034;-84
2021/11/26 02:41:34;;;;;;;34.70;11.90;;;0.90;99.90;;;;;;4955807;29;20031;-84
2021/11/26 02:43:59;;;;;;;31.67;11.83;;;0.90;99.90;;;;;;4956386;29;20032;-84
2021/11/26 02:46:25;;;;;;;42.30;13.23;;;0.90;99.90;;;;;;4958303;28;20029;-84
2021/11/26 02:48:51;;;;;;;36.40;12.97;;;0.90;99.90;;;;;;4976897;28;20172;-84
2021/11/26 02:51:16;;;;;;;35.93;12.60;;;0.90;99.90;;;;;;4959180;28;20042;-84
2021/11/26 02:53:42;;;;;;;34.67;13.10;;;0.90;99.90;;;;;;4975771;28;20117;-84
2021/11/26 02:56:08;;;;;;;36.33;12.57;;;0.90;99.90;;;;;;4956881;28;20801;-84
2021/11/26 02:58:33;;;;;;;38.53;13.63;;;0.90;99.90;;;;;;4955370;29;20090;-84
2021/11/26 03:01:00;;;;;;;31.27;11.93;;;0.90;99.90;;;;;;4957100;29;20047;-84
2021/11/26 03:03:26;;;;;;;29.47;12.47;;;0.90;99.90;;;;;;4954588;28;20110;-84
2021/11/26 03:06:06;;;;;;;33.80;11.53;;;0.90;99.90;;;;;;4976062;28;20468;-84
2021/11/26 03:08:34;;;;;;;36.70;13.27;;;0.90;99.90;;;;;;4976288;28;20090;-84
2021/11/26 03:11:01;;;;;;;33.43;11.87;;;0.90;99.90;;;;;;4958425;28;20046;-83
2021/11/26 03:13:27;;;;;;;37.90;13.73;;;0.90;99.90;;;;;;4989289;23;20038;-85
2021/11/26 03:15:53;;;;;;;32.73;13.13;;;0.90;99.90;;;;;;4973747;28;20910;-85
2021/11/26 03:18:20;;;;;;;32.33;12.77;;;0.90;99.90;;;;;;4980800;28;20082;-87
2021/11/26 03:20:49;;;;;;;34.53;13.30;;;0.90;99.90;;;;;;4967553;28;20026;-87
2021/11/26 03:23:17;;;;;;;37.47;12.77;;;0.90;99.90;;;;;;4966526;28;20030;-87
2021/11/26 03:25:43;;;;;;;36.30;13.33;;;1.00;99.90;;;;;;4982157;28;20022;-87
2021/11/26 03:28:10;;;;;;;32.97;11.83;;;1.00;99.90;;;;;;4980342;28;20030;-87
2021/11/26 03:30:37;;;;;;;33.07;12.07;;;0.90;99.90;;;;;;4980141;28;20387;-87
2021/11/26 03:33:03;;;;;;;41.03;13.00;;;0.90;99.90;;;;;;4978375;28;20034;-87
2021/11/26 03:35:29;;;;;;;34.63;12.30;;;0.90;99.90;;;;;;4977995;28;20019;-87
2021/11/26 03:37:55;;;;;;;35.53;12.60;;;0.90;99.90;;;;;;4978775;28;20031;-87
2021/11/26 03:40:22;;;;;;;34.33;11.80;;;0.90;99.90;;;;;;4977002;28;20050;-87
2021/11/26 03:42:49;;;;;;;35.33;12.37;;;0.90;99.90;;;;;;4976710;28;20071;-87
2021/11/26 03:45:16;;;;;;;34.10;12.73;;;1.00;99.90;;;;;;4960231;28;20023;-87
2021/11/26 03:47:42;;;;;;;29.23;11.10;;;1.00;99.90;;;;;;4977558;28;20027;-87
2021/11/26 03:50:10;;;;;;;33.37;12.10;;;1.00;99.90;;;;;;4977884;28;20034;-88
2021/11/26 03:52:36;;;;;;;27.30;11.83;;;0.90;99.90;;;;;;4975904;28;20035;-87
2021/11/26 03:55:06;;;;;;;31.73;12.07;;;0.90;99.90;;;;;;4978188;28;20035;-87
2021/11/26 03:57:31;;;;;;;33.20;12.13;;;0.90;99.90;;;;;;4978248;28;20031;-87
2021/11/26 03:59:57;;;;;;;33.83;12.03;;;0.90;99.90;;;;;;4978490;28;20078;-87
2021/11/26 04:02:23;;;;;;;33.80;12.47;;;0.90;99.90;;;;;;4960718;28;20073;-87
2021/11/26 04:04:48;;;;;;;31.77;11.47;;;0.80;99.90;;;;;;4961155;28;20058;-87
2021/11/26 04:07:14;;;;;;;28.37;11.03;;;0.80;99.90;;;;;;4961032;28;20034;-87
2021/11/26 04:09:40;;;;;;;33.23;12.47;;;0.80;99.90;;;;;;4960247;28;20034;-87
2021/11/26 04:12:07;;;;;;;34.43;12.77;;;0.90;99.90;;;;;;4978217;28;20031;-87
2021/11/26 04:14:33;;;;;;;33.70;12.47;;;0.80;99.90;;;;;;4978207;28;20495;-87
2021/11/26 04:16:59;;;;;;;32.47;13.03;;;0.90;99.90;;;;;;4961062;28;20022;-87
2021/11/26 04:19:24;;;;;;;33.10;11.70;;;0.90;99.90;;;;;;4977601;28;20032;-87
2021/11/26 04:21:50;;;;;;;30.50;12.13;;;0.90;99.90;;;;;;4976880;28;20105;-87
2021/11/26 04:24:16;;;;;;;34.43;11.73;;;0.90;99.90;;;;;;4977486;28;20566;-87
2021/11/26 04:26:41;;;;;;;41.57;12.60;;;0.90;99.90;;;;;;4983615;28;20109;-87
2021/11/26 04:29:07;;;;;;;29.40;11.10;;;0.80;99.90;;;;;;4984851;28;20058;-87
2021/11/26 04:31:32;;;;;;;31.77;11.33;;;0.80;99.90;;;;;;4972019;28;20031;-87
2021/11/26 04:33:58;;;;;;;30.73;11.90;;;0.80;99.90;;;;;;4995234;28;20034;-87
2021/11/26 04:36:24;;;;;;;30.60;11.13;;;0.80;99.90;;;;;;4991887;28;20065;-87
2021/11/26 04:38:50;;;;;;;35.27;12.60;;;0.80;99.90;;;;;;4985485;28;20483;-88
2021/11/26 04:41:15;;;;;;;33.93;13.43;;;0.80;99.90;;;;;;4979071;28;20031;-87
2021/11/26 04:43:41;;;;;;;39.90;12.63;;;0.80;99.90;;;;;;4962264;28;20038;-87
2021/11/26 04:46:07;;;;;;;37.00;12.87;;;0.70;99.90;;;;;;4961085;28;20096;-87
2021/11/26 04:48:33;;;;;;;35.20;13.53;;;0.70;99.90;;;;;;4960176;28;20039;-87
2021/11/26 04:50:58;;;;;;;32.73;13.63;;;0.80;99.90;;;;;;4959322;28;20035;-87
2021/11/26 04:53:24;;;;;;;34.47;12.80;;;0.70;99.90;;;;;;4976665;28;20078;-87
2021/11/26 04:55:51;;;;;;;37.40;11.67;;;0.70;99.90;;;;;;4960483;28;20025;-87
2021/11/26 04:58:17;;;;;;;33.57;12.90;;;0.70;99.90;;;;;;4980853;28;20042;-87
2021/11/26 05:00:43;;;;;;;38.13;12.20;;;0.80;99.90;;;;;;4964260;28;20031;-87
2021/11/26 05:03:09;;;;;;;31.90;11.77;;;0.80;99.90;;;;;;4979342;28;20034;-87
2021/11/26 05:05:35;;;;;;;33.60;11.73;;;0.70;99.90;;;;;;4976723;28;20034;-87
2021/11/26 05:08:01;;;;;;;35.10;11.90;;;0.80;99.90;;;;;;4964034;28;20027;-87
2021/11/26 05:10:27;;;;;;;37.90;12.43;;;0.80;99.90;;;;;;4967213;28;20093;-87
2021/11/26 05:12:58;;;;;;;39.10;11.93;;;0.70;99.90;;;;;;4966128;28;20039;-88
2021/11/26 05:15:26;;;;;;;31.13;11.00;;;0.80;99.90;;;;;;4964180;28;20417;-88
2021/11/26 05:17:58;;;;;;;39.13;12.57;;;0.80;99.90;;;;;;4967280;28;20038;-85
2021/11/26 05:20:24;;;;;;;26.55;9.70;;;0.80;99.90;;;;;;4970437;28;20558;-85
2021/11/26 05:22:50;;;;;;;33.40;11.70;;;0.80;99.90;;;;;;4985387;28;20035;-85
2021/11/26 05:25:17;;;;;;;28.83;11.40;;;0.80;99.90;;;;;;4960347;28;20034;-87
2021/11/26 05:27:43;;;;;;;45.70;13.33;;;0.80;99.90;;;;;;4961158;28;20132;-87
2021/11/26 05:30:12;;;;;;;32.50;11.17;;;0.80;99.90;;;;;;4976883;28;20062;-87
2021/11/26 05:32:39;;;;;;;36.67;12.10;;;0.80;99.90;;;;;;4975775;28;20030;-87
2021/11/26 05:35:10;;;;;;;35.43;12.53;;;0.70;99.90;;;;;;4976166;28;20476;-87
2021/11/26 05:37:37;;;;;;;40.87;12.77;;;0.70;99.90;;;;;;4959102;28;20027;-87
2021/11/26 05:40:04;;;;;;;31.57;12.73;;;0.80;99.90;;;;;;4959360;28;20031;-87
2021/11/26 05:42:30;;;;;;;32.03;12.37;;;0.70;99.90;;;;;;4958294;28;20058;-87
2021/11/26 05:44:56;;;;;;;36.27;12.67;;;0.80;99.90;;;;;;4958532;28;20042;-87
2021/11/26 05:47:22;;;;;;;38.50;13.43;;;0.80;99.90;;;;;;4958917;28;20043;-87
2021/11/26 05:49:47;;;;;;;39.10;12.90;;;0.90;99.90;;;;;;4976022;28;20562;-87
2021/11/26 05:52:13;;;;;;;40.70;13.90;;;0.90;99.90;;;;;;4974474;28;20102;-87
2021/11/26 05:54:39;;;;;;;38.57;13.20;;;0.90;99.90;;;;;;4959410;28;20030;-87
2021/11/26 05:57:05;;;;;;;37.87;12.77;;;0.90;99.90;;;;;;4955928;28;20030;-87
2021/11/26 05:59:31;;;;;;;44.87;14.07;;;1.00;99.90;;;;;;4975564;28;20469;-87
2021/11/26 06:01:58;;;;;;;32.80;11.23;;;1.00;99.90;;;;;;4974168;28;20019;-87
2021/11/26 06:04:25;;;;;;;39.40;13.60;;;1.00;99.90;;;;;;4956804;28;20034;-87
2021/11/26 06:06:51;;;;;;;32.07;12.80;;;1.10;99.90;;;;;;4955454;28;20034;-88
2021/11/26 06:09:17;;;;;;;30.53;11.47;;;1.00;99.90;;;;;;4955309;28;20373;-87
2021/11/26 06:11:42;;;;;;;38.50;12.70;;;1.10;99.90;;;;;;4953542;28;20117;-87
2021/11/26 06:14:08;;;;;;;37.33;12.17;;;1.00;99.90;;;;;;4956063;28;20034;-87
2021/11/26 06:16:34;;;;;;;37.17;12.50;;;1.00;99.90;;;;;;4972412;28;20809;-88
2021/11/26 06:19:00;;;;;;;35.60;13.10;;;0.90;99.90;;;;;;4971015;28;20543;-87
2021/11/26 06:21:26;;;;;;;33.93;12.70;;;0.90;99.90;;;;;;4976644;28;20030;-87
2021/11/26 06:23:52;;;;;;;38.00;12.60;;;0.90;99.90;;;;;;4971202;28;20093;-88
2021/11/26 06:26:17;;;;;;;37.37;12.80;;;1.00;99.90;;;;;;4974285;28;20038;-88
2021/11/26 06:28:44;;;;;;;38.77;12.40;;;1.00;99.90;;;;;;4974778;28;20045;-87
2021/11/26 06:31:10;;;;;;;36.37;13.20;;;1.00;99.90;;;;;;4963780;28;20487;-87
2021/11/26 06:33:36;;;;;;;35.90;12.63;;;1.10;99.90;;;;;;4974531;28;20031;-88
2021/11/26 06:36:02;;;;;;;38.07;12.63;;;1.10;99.90;;;;;;4980036;28;21339;-88
2021/11/26 06:38:27;;;;;;;34.63;11.27;;;1.10;99.90;;;;;;4964945;28;20026;-88
2021/11/26 06:40:53;;;;;;;34.03;11.80;;;1.10;99.90;;;;;;4991049;28;20046;-89
2021/11/26 06:43:19;;;;;;;30.60;11.43;;;1.10;99.90;;;;;;4971347;28;20506;-87
2021/11/26 06:45:44;;;;;;;38.97;12.00;;;1.10;99.90;;;;;;4972330;28;20125;-88
2021/11/26 06:48:10;;;;;;;32.10;11.63;;;1.10;99.90;;;;;;4964505;28;20022;-86
2021/11/26 06:50:37;;;;;;;32.30;10.73;;;1.10;99.90;;;;;;4956550;28;20122;-87
2021/11/26 06:53:06;;;;;;;31.23;10.30;;;1.10;99.90;;;;;;4956942;28;20499;-88
2021/11/26 06:55:33;;;;;;;32.27;11.57;;;1.10;99.90;;;;;;4965820;28;20022;-88
2021/11/26 06:57:59;;;;;;;32.10;10.53;;;1.10;99.90;;;;;;4980825;28;20014;-88
2021/11/26 07:00:25;;;;;;;32.57;10.87;;;1.10;99.90;;;;;;4972622;28;20394;-88
2021/11/26 07:02:50;;;;;;;33.07;12.63;;;1.10;99.90;;;;;;4978588;28;20037;-88
2021/11/26 07:05:16;;;;;;;34.80;11.83;;;1.20;99.90;;;;;;4970493;28;20038;-89
2021/11/26 07:07:42;;;;;;;32.40;11.07;;;1.20;99.90;;;;;;4989778;28;20038;-89
2021/11/26 07:10:10;;;;;;;33.47;12.93;;;1.30;99.90;;;;;;4953560;28;20511;-89
2021/11/26 07:12:36;;;;;;;31.40;12.23;;;1.30;99.90;;;;;;4967876;28;20069;-89
2021/11/26 07:15:04;;;;;;;34.40;12.30;;;1.30;99.90;;;;;;4966693;28;20582;-89
2021/11/26 07:17:29;;;;;;;31.43;11.60;;;1.30;99.90;;;;;;4969455;28;20026;-88
2021/11/26 07:19:55;;;;;;;35.70;11.17;;;1.40;99.90;;;;;;4984460;28;20026;-89
2021/11/26 07:22:21;;;;;;;29.43;11.47;;;1.40;99.90;;;;;;4961500;28;20029;-88
2021/11/26 07:24:46;;;;;;;35.10;12.73;;;1.30;99.90;;;;;;4966163;28;20040;-89
2021/11/26 07:27:13;;;;;;;35.23;11.43;;;1.40;99.90;;;;;;4956484;28;20480;-89
2021/11/26 07:29:39;;;;;;;29.67;11.60;;;1.40;99.90;;;;;;4958518;28;20394;-89
2021/11/26 07:32:06;;;;;;;36.00;12.47;;;1.40;99.90;;;;;;4981791;28;20027;-89
2021/11/26 07:34:32;;;;;;;32.27;11.33;;;1.40;99.90;;;;;;4983290;28;20023;-89
2021/11/26 07:36:58;;;;;;;32.80;11.20;;;1.40;99.90;;;;;;4963722;28;20521;-89
2021/11/26 07:39:32;;;;;;;29.93;11.63;;;1.40;99.90;;;;;;4958727;28;20026;-89
2021/11/26 07:41:57;;;;;;;29.50;10.67;;;1.40;99.90;;;;;;4972812;28;20023;-89
2021/11/26 07:44:23;;;;;;;27.97;10.40;;;1.30;99.90;;;;;;4955565;28;20084;-89
2021/11/26 07:46:49;;;;;;;35.57;12.00;;;1.30;99.90;;;;;;4958844;28;20487;-90
2021/11/26 07:49:15;;;;;;;30.07;12.90;;;1.30;99.90;;;;;;4980173;28;20026;-88
2021/11/26 07:51:40;;;;;;;33.03;10.60;;;1.30;99.90;;;;;;4964695;28;20042;-89
2021/11/26 07:54:06;;;;;;;32.63;12.20;;;1.20;99.90;;;;;;4968114;28;20027;-88
2021/11/26 07:56:35;;;;;;;33.77;10.87;;;1.20;99.90;;;;;;4958884;28;20081;-90
2021/11/26 07:59:01;;;;;;;31.37;11.70;;;1.30;99.90;;;;;;4958492;28;20034;-87
2021/11/26 08:01:26;;;;;;;31.13;11.83;;;1.40;99.90;;;;;;4958595;28;20027;-87
2021/11/26 08:03:52;;;;;;;34.13;11.70;;;1.30;99.90;;;;;;4954691;28;20031;-87
2021/11/26 08:06:18;;;;;;;29.17;10.40;;;1.30;99.90;;;;;;4985774;28;20026;-86
2021/11/26 08:08:44;;;;;;;30.70;11.53;;;1.30;99.90;;;;;;4974047;28;20037;-85
2021/11/26 08:11:10;;;;;;;39.53;13.27;;;1.30;99.90;;;;;;4990454;28;20034;-87
2021/11/26 08:13:36;;;;;;;40.33;13.30;;;1.30;99.90;;;;;;4969656;28;20038;-86
2021/11/26 08:16:02;;;;;;;36.53;12.03;;;1.30;99.90;;;;;;4974602;28;20030;-86
2021/11/26 08:18:29;;;;;;;33.30;11.70;;;1.40;99.90;;;;;;4978053;28;20046;-86
2021/11/26 08:20:54;;;;;;;30.57;11.40;;;1.30;99.90;;;;;;4971191;28;20113;-86
2021/11/26 08:23:20;;;;;;;33.30;11.73;;;1.30;99.90;;;;;;4975062;28;20049;-86
2021/11/26 08:25:46;;;;;;;31.97;11.67;;;1.30;99.90;;;;;;4991436;28;20033;-87
2021/11/26 08:28:11;;;;;;;32.50;11.93;;;1.30;99.90;;;;;;4987304;28;20025;-87
2021/11/26 08:30:37;;;;;;;36.33;11.33;;;1.30;99.90;;;;;;4977795;28;20403;-86
2021/11/26 08:33:03;;;;;;;31.63;11.63;;;1.40;99.90;;;;;;4972224;28;20419;-87
2021/11/26 08:35:28;;;;;;;30.77;11.63;;;1.40;99.90;;;;;;4979954;28;20026;-87
2021/11/26 08:37:54;;;;;;;36.00;12.00;;;1.40;99.90;;;;;;4974699;28;20011;-87
2021/11/26 08:40:21;;;;;;;34.63;12.80;;;1.40;99.90;;;;;;4956261;28;20030;-87
2021/11/26 08:42:47;;;;;;;36.17;11.67;;;1.40;99.90;;;;;;4955172;28;20019;-87
2021/11/26 08:45:13;;;;;;;38.10;12.43;;;1.40;99.90;;;;;;4955245;28;20418;-87
2021/11/26 08:47:40;;;;;;;32.50;10.83;;;1.50;99.90;;;;;;4972674;28;20093;-87
2021/11/26 08:50:10;;;;;;;38.17;11.90;;;1.40;99.90;;;;;;4972606;28;20106;-87
2021/11/26 08:52:36;;;;;;;31.63;12.23;;;1.40;99.90;;;;;;4973280;28;20121;-87
2021/11/26 08:55:04;;;;;;;35.57;11.47;;;1.40;99.90;;;;;;4954718;28;20050;-88
2021/11/26 08:57:30;;;;;;;39.27;12.13;;;1.50;99.90;;;;;;4973527;28;20027;-84
2021/11/26 08:59:56;;;;;;;37.20;11.70;;;1.40;99.90;;;;;;4973458;28;20034;-86
2021/11/26 09:02:21;;;;;;;32.30;11.13;;;1.40;99.90;;;;;;4972209;28;20042;-86
2021/11/26 09:04:47;;;;;;;32.07;11.23;;;1.40;99.90;;;;;;4955086;28;20116;-85
2021/11/26 09:07:13;;;;;;;33.87;11.90;;;1.40;99.90;;;;;;4956644;28;20086;-86
2021/11/26 09:09:38;;;;;;;35.17;11.80;;;1.50;99.90;;;;;;4977761;28;20038;-86
2021/11/26 09:12:05;;;;;;;35.63;12.30;;;1.60;99.90;;;;;;4956770;28;20023;-86
2021/11/26 09:14:32;;;;;;;30.30;12.00;;;1.50;99.90;;;;;;4955761;28;20089;-85
2021/11/26 09:16:58;;;;;;;41.07;12.80;;;1.50;99.90;;;;;;4956651;28;20018;-86
2021/11/26 09:19:23;;;;;;;38.53;12.10;;;1.50;99.90;;;;;;4957070;28;20027;-87
2021/11/26 09:21:49;;;;;;;41.93;12.97;;;1.40;99.90;;;;;;4955113;28;20030;-85
2021/11/26 09:24:15;;;;;;;33.27;11.63;;;1.40;99.90;;;;;;4972313;28;20054;-84
2021/11/26 09:26:41;;;;;;;30.17;10.87;;;1.40;99.90;;;;;;4968028;28;20883;-86
2021/11/26 09:29:07;;;;;;;37.63;11.77;;;1.40;99.90;;;;;;4954526;28;20023;-85
2021/11/26 09:31:32;;;;;;;36.33;11.73;;;1.40;99.90;;;;;;4955319;28;20090;-85
2021/11/26 09:33:59;;;;;;;39.60;12.67;;;1.50;99.90;;;;;;4955263;28;20042;-85
2021/11/26 09:36:27;;;;;;;35.67;11.67;;;1.50;99.90;;;;;;4955046;28;20536;-85
2021/11/26 09:38:53;;;;;;;42.23;12.70;;;1.60;99.90;;;;;;4974772;28;20022;-85
2021/11/26 09:41:22;;;;;;;29.07;11.20;;;1.60;99.90;;;;;;4956652;28;20019;-87
2021/11/26 09:43:49;;;;;;;41.87;12.23;;;1.60;99.90;;;;;;4976355;28;20483;-86
2021/11/26 09:46:19;;;;;;;39.60;13.07;;;1.60;99.90;;;;;;4958769;28;20027;-86
2021/11/26 09:48:45;;;;;;;37.67;12.30;;;1.60;99.90;;;;;;4959153;28;20033;-85
2021/11/26 09:51:11;;;;;;;32.30;12.20;;;1.60;99.90;;;;;;4959444;28;20090;-86
2021/11/26 09:53:37;;;;;;;35.70;12.33;;;1.70;99.90;;;;;;4962553;28;20399;-86
2021/11/26 09:56:06;;;;;;;40.33;13.00;;;1.80;99.90;;;;;;4960967;28;20031;-87
2021/11/26 09:58:32;;;;;;;33.73;12.50;;;1.70;99.90;;;;;;4979263;28;20045;-87
2021/11/26 10:01:00;;;;;;;37.57;13.17;;;1.70;99.90;;;;;;4961647;28;20937;-87
2021/11/26 10:03:45;;;;;;;41.03;13.27;;;1.70;99.90;;;;;;4959725;28;20019;-86
2021/11/26 10:06:38;;;;;;;41.63;13.03;;;1.70;99.90;;;;;;4956464;28;20031;-87
2021/11/26 10:09:05;;;;;;;;;;;1.80;99.90;;;;;;4957668;28;20019;-86
2021/11/26 10:11:39;;;;;;;36.80;12.33;;;1.80;99.90;;;;;;4959139;28;19968;-85
2021/11/26 10:14:21;;;;;;;37.27;11.80;;;1.70;99.90;;;;;;4958831;28;20031;-86
2021/11/26 10:16:50;;;;;;;32.78;10.43;;;1.80;99.90;;;;;;4972870;28;20020;-86
2021/11/26 10:19:16;;;;;;;36.77;12.40;;;1.80;99.90;;;;;;4960421;28;20022;-86
2021/11/26 10:21:43;;;;;;;36.67;12.20;;;1.80;99.90;;;;;;4974494;28;20011;-86
2021/11/26 10:24:17;;;;;;;29.80;10.70;;;1.80;99.90;;;;;;4953630;28;20023;-87
2021/11/26 10:26:54;;;;;;;37.93;11.67;;;1.80;99.90;;;;;;4960320;28;20094;-86
2021/11/26 10:29:36;;;;;;;36.70;11.90;;;1.80;99.90;;;;;;4958272;28;20027;-86
2021/11/26 10:32:10;;;;;;;32.55;11.43;;;1.80;99.90;;;;;;4954272;28;20129;-86
2021/11/26 10:34:37;;;;;;;43.10;12.67;;;1.80;99.90;;;;;;4960263;28;20503;-86
2021/11/26 10:37:04;;;;;;;30.27;10.97;;;1.90;99.90;;;;;;4976721;28;20034;-86
2021/11/26 10:39:32;;;;;;;32.47;10.60;;;2.00;99.90;;;;;;4974919;28;20169;-86
2021/11/26 10:41:59;;;;;;;35.03;11.50;;;2.00;99.90;;;;;;4969271;28;20027;-85
2021/11/26 10:44:51;;;;;;;32.00;11.10;;;2.00;99.90;;;;;;4957180;28;20050;-86
2021/11/26 11:01:13;;;;;;;32.83;10.20;;;2.00;99.90;;;;;;4971978;28;20522;-85
2021/11/26 11:03:40;;;;;;;25.67;9.77;;;2.10;99.90;;;;;;4959550;28;20064;-85
2021/11/26 11:06:20;;;;;;;32.57;10.83;;;2.10;99.90;;;;;;4973026;28;20031;-85
2021/11/26 11:08:56;;;;;;;31.90;11.40;;;2.00;99.90;;;;;;4950449;28;20399;-85
2021/11/26 11:11:22;;;;;;;28.87;10.20;;;2.00;99.90;;;;;;4971338;28;20487;-86
2021/11/26 11:13:48;;;;;;;24.73;8.60;;;2.10;99.90;;;;;;4970696;28;20027;-86
2021/11/26 11:16:13;;;;;;;27.00;9.20;;;2.00;99.90;;;;;;4966212;28;20187;-85
2021/11/26 11:18:42;;;;;;;28.20;8.97;;;2.10;99.90;;;;;;4956288;28;20113;-86
2021/11/26 11:21:09;;;;;;;32.50;9.63;;;2.00;99.90;;;;;;4956643;28;20049;-86
2021/11/26 11:23:35;;;;;;;28.40;10.10;;;2.10;99.90;;;;;;4956086;28;20041;-85
2021/11/26 11:26:02;;;;;;;28.87;9.93;;;2.10;99.90;;;;;;4955095;28;20725;-85
2021/11/26 11:28:27;;;;;;;32.60;10.10;;;2.10;99.90;;;;;;4972747;28;20034;-85
2021/11/26 11:30:54;;;;;;;27.50;10.13;;;2.10;99.90;;;;;;4956466;28;20033;-85
2021/11/26 11:33:22;;;;;;;28.70;10.67;;;2.10;99.90;;;;;;4952163;28;20380;-85
2021/11/26 11:35:49;;;;;;;28.10;9.83;;;2.10;99.90;;;;;;4955878;28;20029;-85
2021/11/26 11:38:18;;;;;;;26.43;9.67;;;2.10;99.90;;;;;;4966642;28;20062;-85
2021/11/26 11:40:49;;;;;;;32.30;10.57;;;2.10;99.90;;;;;;4985061;28;20027;-86
2021/11/26 11:43:22;;;;;;;31.90;9.77;;;2.10;99.90;;;;;;4967759;28;20411;-86
2021/11/26 11:45:56;;;;;;;31.57;10.53;;;2.10;99.90;;;;;;4974266;28;20078;-85
2021/11/26 11:48:24;;;;;;;29.10;9.70;;;2.10;99.90;;;;;;4982390;28;20055;-85
2021/11/26 11:50:50;;;;;;;26.40;10.20;;;2.10;99.90;;;;;;4967666;28;20507;-86
2021/11/26 11:53:31;;;;;;;27.97;10.20;;;2.20;99.90;;;;;;4981533;28;20027;-85
2021/11/26 11:56:14;;;;;;;27.23;9.80;;;2.20;99.90;;;;;;4979348;28;20506;-85
2021/11/26 11:58:55;;;;;;;27.37;10.20;;;2.20;99.90;;;;;;4976826;28;20023;-85
2021/11/26 12:01:32;;;;;;;31.23;9.83;;;2.30;99.90;;;;;;4956766;28;20418;-85
2021/11/26 12:03:59;;;;;;;27.10;9.03;;;2.30;99.90;;;;;;4972349;28;20031;-85
2021/11/26 12:06:39;;;;;;;25.60;10.00;;;2.30;99.90;;;;;;4973919;28;20031;-85
2021/11/26 12:09:05;;;;;;;29.83;9.43;;;2.30;99.90;;;;;;4973648;28;20106;-85
2021/11/26 12:11:34;;;;;;;30.07;9.37;;;2.30;99.90;;;;;;4973160;28;20034;-85
2021/11/26 12:14:09;;;;;;;30.20;9.83;;;2.30;99.90;;;;;;4972712;28;20651;-85
2021/11/26 12:16:51;;;;;;;26.53;9.93;;;2.20;99.90;;;;;;4956056;28;20027;-85
2021/11/26 12:19:28;;;;;;;31.17;9.60;;;2.20;99.90;;;;;;4965314;28;20069;-85
2021/11/26 12:21:56;;;;;;;33.77;10.50;;;2.30;99.90;;;;;;4966701;28;20098;-86
2021/11/26 12:24:32;;;;;;;35.37;11.70;;;2.20;99.90;;;;;;4987114;28;20049;-86
2021/11/26 12:26:59;;;;;;;34.07;11.27;;;2.20;99.90;;;;;;4976507;28;20073;-88
2021/11/26 12:29:44;;;;;;;27.87;9.87;;;2.20;99.90;;;;;;4986259;28;20034;-86
2021/11/26 12:32:18;;;;;;;24.40;9.70;;;2.30;99.90;;;;;;4966126;28;20093;-86
2021/11/26 12:34:50;;;;;;;32.83;10.40;;;2.20;99.90;;;;;;4983537;28;20022;-87
2021/11/26 12:37:22;;;;;;;29.27;9.55;;;2.20;99.90;;;;;;4965634;28;20015;-85
2021/11/26 12:39:50;;;;;;;29.90;8.85;;;2.20;99.90;;;;;;4964315;28;20019;-85
2021/11/26 12:42:18;;;;;;;30.97;10.53;;;2.20;99.90;;;;;;4981401;28;20027;-86
2021/11/26 12:44:56;;;;;;;23.90;9.33;;;2.20;99.90;;;;;;4961380;28;20400;-86
2021/11/26 12:47:33;;;;;;;28.67;10.17;;;2.30;99.90;;;;;;4967826;28;20034;-86
2021/11/26 12:52:47;;;;;;;25.20;9.37;;;2.30;99.90;;;;;;4987721;28;20033;-87
2021/11/26 12:55:15;;;;;;;28.10;10.50;;;2.20;99.90;;;;;;4987365;28;20082;-87
2021/11/26 12:57:51;;;;;;;30.90;9.50;;;2.30;99.90;;;;;;4972324;28;20031;-87
2021/11/26 13:00:18;;;;;;;33.27;9.93;;;2.30;99.90;;;;;;4968910;28;20524;-86